sensor_id;sensor_type;location;lat;lon;timestamp;P1;durP1;ratioP1;P2;durP2;ratioP2
35693;SDS011;21812;55.536;37.664;2024-03-23T00:55:38;30.45;;;17.60;;
35693;SDS011;21812;55.536;37.664;2024-03-23T00:58:04;34.83;;;17.02;;
35693;SDS011;21812;55.536;37.664;2024-03-23T01:00:29;31.70;;;17.27;;
35693;SDS011;21812;55.536;37.664;2024-03-23T01:02:55;29.77;;;16.65;;
35693;SDS011;21812;55.536;37.664;2024-03-23T01:05:21;26.58;;;14.38;;
35693;SDS011;21812;55.536;37.664;2024-03-23T01:07:46;23.38;;;14.98;;
35693;SDS011;21812;55.536;37.664;2024-03-23T01:10:12;22.63;;;14.48;;
35693;SDS011;21812;55.536;37.664;2024-03-23T01:12:38;26.00;;;15.45;;
35693;SDS011;21812;55.536;37.664;2024-03-23T01:15:03;22.30;;;14.48;;
35693;SDS011;21812;55.536;37.664;2024-03-23T01:17:29;24.42;;;13.57;;
35693;SDS011;21812;55.536;37.664;2024-03-23T01:19:55;26.25;;;15.50;;
35693;SDS011;21812;55.536;37.664;2024-03-23T01:22:21;26.55;;;15.68;;
35693;SDS011;21812;55.536;37.664;2024-03-23T01:24:46;19.52;;;12.20;;
35693;SDS011;21812;55.536;37.664;2024-03-23T01:27:12;21.77;;;13.52;;
35693;SDS011;21812;55.536;37.664;2024-03-23T01:29:38;23.17;;;14.00;;
35693;SDS011;21812;55.536;37.664;2024-03-23T01:32:04;24.05;;;14.82;;
35693;SDS011;21812;55.536;37.664;2024-03-23T01:34:30;28.23;;;15.75;;
35693;SDS011;21812;55.536;37.664;2024-03-23T01:36:56;19.08;;;11.73;;
35693;SDS011;21812;55.536;37.664;2024-03-23T01:39:21;21.27;;;12.77;;
35693;SDS011;21812;55.536;37.664;2024-03-23T01:41:47;18.00;;;10.95;;
35693;SDS011;21812;55.536;37.664;2024-03-23T01:44:13;23.30;;;15.32;;
35693;SDS011;21812;55.536;37.664;2024-03-23T01:46:39;24.25;;;14.75;;
35693;SDS011;21812;55.536;37.664;2024-03-23T01:49:06;23.27;;;13.90;;
35693;SDS011;21812;55.536;37.664;2024-03-23T01:51:33;14.95;;;9.23;;
35693;SDS011;21812;55.536;37.664;2024-03-23T01:54:01;22.00;;;14.27;;
35693;SDS011;21812;55.536;37.664;2024-03-23T01:56:32;16.52;;;10.82;;
35693;SDS011;21812;55.536;37.664;2024-03-23T01:59:04;20.23;;;12.85;;
35693;SDS011;21812;55.536;37.664;2024-03-23T02:01:34;24.77;;;11.43;;
35693;SDS011;21812;55.536;37.664;2024-03-23T02:04:03;24.25;;;15.30;;
35693;SDS011;21812;55.536;37.664;2024-03-23T02:06:29;24.48;;;16.60;;
35693;SDS011;21812;55.536;37.664;2024-03-23T02:08:55;23.77;;;14.80;;
35693;SDS011;21812;55.536;37.664;2024-03-23T02:11:22;18.25;;;10.88;;
35693;SDS011;21812;55.536;37.664;2024-03-23T02:13:47;24.13;;;15.45;;
35693;SDS011;21812;55.536;37.664;2024-03-23T02:16:13;23.60;;;13.95;;
35693;SDS011;21812;55.536;37.664;2024-03-23T02:18:41;21.33;;;12.82;;
35693;SDS011;21812;55.536;37.664;2024-03-23T02:21:07;26.45;;;14.40;;
35693;SDS011;21812;55.536;37.664;2024-03-23T02:23:33;25.25;;;14.93;;
35693;SDS011;21812;55.536;37.664;2024-03-23T02:25:58;13.75;;;8.70;;
35693;SDS011;21812;55.536;37.664;2024-03-23T02:28:24;25.58;;;15.75;;
35693;SDS011;21812;55.536;37.664;2024-03-23T02:30:49;21.45;;;13.55;;
35693;SDS011;21812;55.536;37.664;2024-03-23T02:33:15;17.60;;;10.05;;
35693;SDS011;21812;55.536;37.664;2024-03-23T02:35:41;25.10;;;15.27;;
35693;SDS011;21812;55.536;37.664;2024-03-23T02:38:08;25.73;;;16.00;;
35693;SDS011;21812;55.536;37.664;2024-03-23T02:40:34;29.15;;;16.73;;
35693;SDS011;21812;55.536;37.664;2024-03-23T02:43:00;26.65;;;16.20;;
35693;SDS011;21812;55.536;37.664;2024-03-23T02:45:26;24.42;;;15.23;;
35693;SDS011;21812;55.536;37.664;2024-03-23T02:47:51;15.98;;;9.90;;
35693;SDS011;21812;55.536;37.664;2024-03-23T02:50:18;21.25;;;14.13;;
35693;SDS011;21812;55.536;37.664;2024-03-23T02:52:44;19.92;;;12.77;;
35693;SDS011;21812;55.536;37.664;2024-03-23T02:55:10;22.33;;;14.70;;
35693;SDS011;21812;55.536;37.664;2024-03-23T02:57:36;17.52;;;9.20;;
35693;SDS011;21812;55.536;37.664;2024-03-23T03:00:02;21.48;;;15.02;;
35693;SDS011;21812;55.536;37.664;2024-03-23T03:02:30;23.25;;;15.88;;
35693;SDS011;21812;55.536;37.664;2024-03-23T03:04:56;18.27;;;12.18;;
35693;SDS011;21812;55.536;37.664;2024-03-23T03:07:21;20.85;;;13.85;;
35693;SDS011;21812;55.536;37.664;2024-03-23T03:09:47;15.93;;;9.75;;
35693;SDS011;21812;55.536;37.664;2024-03-23T03:12:13;18.95;;;10.77;;
35693;SDS011;21812;55.536;37.664;2024-03-23T03:14:38;21.60;;;12.90;;
35693;SDS011;21812;55.536;37.664;2024-03-23T03:17:04;18.95;;;11.07;;
35693;SDS011;21812;55.536;37.664;2024-03-23T03:19:30;22.38;;;12.95;;
35693;SDS011;21812;55.536;37.664;2024-03-23T03:21:55;19.33;;;12.40;;
35693;SDS011;21812;55.536;37.664;2024-03-23T03:24:21;24.13;;;14.52;;
35693;SDS011;21812;55.536;37.664;2024-03-23T03:26:47;14.50;;;7.68;;
35693;SDS011;21812;55.536;37.664;2024-03-23T03:29:13;21.42;;;11.18;;
35693;SDS011;21812;55.536;37.664;2024-03-23T03:31:39;23.63;;;13.27;;
35693;SDS011;21812;55.536;37.664;2024-03-23T03:34:04;20.58;;;12.45;;
35693;SDS011;21812;55.536;37.664;2024-03-23T03:36:30;19.55;;;12.85;;
35693;SDS011;21812;55.536;37.664;2024-03-23T03:38:56;25.05;;;14.48;;
35693;SDS011;21812;55.536;37.664;2024-03-23T03:41:22;23.23;;;14.70;;
35693;SDS011;21812;55.536;37.664;2024-03-23T03:43:47;22.27;;;14.07;;
35693;SDS011;21812;55.536;37.664;2024-03-23T03:46:13;14.40;;;10.55;;
35693;SDS011;21812;55.536;37.664;2024-03-23T03:48:39;19.35;;;12.75;;
35693;SDS011;21812;55.536;37.664;2024-03-23T03:51:04;15.95;;;11.30;;
35693;SDS011;21812;55.536;37.664;2024-03-23T03:53:30;22.83;;;13.35;;
35693;SDS011;21812;55.536;37.664;2024-03-23T03:55:56;19.48;;;9.90;;
35693;SDS011;21812;55.536;37.664;2024-03-23T03:58:26;20.85;;;11.65;;
35693;SDS011;21812;55.536;37.664;2024-03-23T04:00:51;19.60;;;12.35;;
35693;SDS011;21812;55.536;37.664;2024-03-23T04:03:17;18.17;;;11.57;;
35693;SDS011;21812;55.536;37.664;2024-03-23T04:05:43;18.70;;;12.98;;
35693;SDS011;21812;55.536;37.664;2024-03-23T04:08:14;17.50;;;11.85;;
35693;SDS011;21812;55.536;37.664;2024-03-23T04:10:40;18.33;;;12.25;;
35693;SDS011;21812;55.536;37.664;2024-03-23T04:13:06;21.70;;;12.70;;
35693;SDS011;21812;55.536;37.664;2024-03-23T04:15:31;18.73;;;8.48;;
35693;SDS011;21812;55.536;37.664;2024-03-23T04:17:57;15.48;;;11.23;;
35693;SDS011;21812;55.536;37.664;2024-03-23T04:20:23;23.40;;;14.43;;
35693;SDS011;21812;55.536;37.664;2024-03-23T04:22:48;24.20;;;14.20;;
35693;SDS011;21812;55.536;37.664;2024-03-23T04:25:14;19.45;;;11.80;;
35693;SDS011;21812;55.536;37.664;2024-03-23T04:27:40;19.63;;;13.02;;
35693;SDS011;21812;55.536;37.664;2024-03-23T04:30:07;15.88;;;9.48;;
35693;SDS011;21812;55.536;37.664;2024-03-23T04:32:37;23.17;;;13.85;;
35693;SDS011;21812;55.536;37.664;2024-03-23T04:35:03;24.25;;;13.45;;
35693;SDS011;21812;55.536;37.664;2024-03-23T04:37:35;23.67;;;14.90;;
35693;SDS011;21812;55.536;37.664;2024-03-23T04:40:02;21.08;;;12.30;;
35693;SDS011;21812;55.536;37.664;2024-03-23T04:42:31;20.83;;;12.15;;
35693;SDS011;21812;55.536;37.664;2024-03-23T04:44:57;18.90;;;12.93;;
35693;SDS011;21812;55.536;37.664;2024-03-23T04:47:23;35.50;;;24.50;;
35693;SDS011;21812;55.536;37.664;2024-03-23T04:49:49;19.67;;;11.45;;
35693;SDS011;21812;55.536;37.664;2024-03-23T04:52:15;20.67;;;12.65;;
35693;SDS011;21812;55.536;37.664;2024-03-23T04:54:42;19.00;;;12.32;;
35693;SDS011;21812;55.536;37.664;2024-03-23T04:57:08;19.98;;;12.40;;
35693;SDS011;21812;55.536;37.664;2024-03-23T04:59:34;22.00;;;13.15;;
35693;SDS011;21812;55.536;37.664;2024-03-23T05:01:59;19.40;;;10.77;;
35693;SDS011;21812;55.536;37.664;2024-03-23T05:04:26;18.23;;;11.68;;
35693;SDS011;21812;55.536;37.664;2024-03-23T05:06:53;12.70;;;7.40;;
35693;SDS011;21812;55.536;37.664;2024-03-23T05:09:19;18.02;;;11.63;;
35693;SDS011;21812;55.536;37.664;2024-03-23T05:11:45;9.52;;;6.00;;
35693;SDS011;21812;55.536;37.664;2024-03-23T05:14:14;13.52;;;8.38;;
35693;SDS011;21812;55.536;37.664;2024-03-23T05:16:40;16.52;;;10.05;;
35693;SDS011;21812;55.536;37.664;2024-03-23T05:19:06;17.75;;;12.10;;
35693;SDS011;21812;55.536;37.664;2024-03-23T05:21:32;20.80;;;12.35;;
35693;SDS011;21812;55.536;37.664;2024-03-23T05:23:57;17.05;;;10.65;;
35693;SDS011;21812;55.536;37.664;2024-03-23T05:26:23;17.15;;;10.52;;
35693;SDS011;21812;55.536;37.664;2024-03-23T05:28:49;18.20;;;11.23;;
35693;SDS011;21812;55.536;37.664;2024-03-23T05:31:24;20.92;;;12.05;;
35693;SDS011;21812;55.536;37.664;2024-03-23T05:33:50;16.35;;;9.00;;
35693;SDS011;21812;55.536;37.664;2024-03-23T05:36:17;17.33;;;10.63;;
35693;SDS011;21812;55.536;37.664;2024-03-23T05:38:42;19.17;;;11.55;;
35693;SDS011;21812;55.536;37.664;2024-03-23T05:41:08;18.85;;;11.35;;
35693;SDS011;21812;55.536;37.664;2024-03-23T05:43:34;12.77;;;8.15;;
35693;SDS011;21812;55.536;37.664;2024-03-23T05:46:00;13.70;;;9.13;;
35693;SDS011;21812;55.536;37.664;2024-03-23T05:48:30;17.63;;;10.98;;
35693;SDS011;21812;55.536;37.664;2024-03-23T05:50:56;14.85;;;9.13;;
35693;SDS011;21812;55.536;37.664;2024-03-23T05:53:22;18.40;;;10.80;;
35693;SDS011;21812;55.536;37.664;2024-03-23T05:55:49;13.98;;;9.65;;
35693;SDS011;21812;55.536;37.664;2024-03-23T05:58:16;16.58;;;9.68;;
35693;SDS011;21812;55.536;37.664;2024-03-23T06:00:44;16.27;;;10.82;;
35693;SDS011;21812;55.536;37.664;2024-03-23T06:03:10;17.30;;;11.02;;
35693;SDS011;21812;55.536;37.664;2024-03-23T06:05:36;17.40;;;12.82;;
35693;SDS011;21812;55.536;37.664;2024-03-23T06:08:03;18.30;;;11.10;;
35693;SDS011;21812;55.536;37.664;2024-03-23T06:10:29;16.73;;;11.07;;
35693;SDS011;21812;55.536;37.664;2024-03-23T06:12:55;14.23;;;9.90;;
35693;SDS011;21812;55.536;37.664;2024-03-23T06:15:21;13.35;;;9.13;;
35693;SDS011;21812;55.536;37.664;2024-03-23T06:17:48;16.20;;;11.43;;
35693;SDS011;21812;55.536;37.664;2024-03-23T06:20:14;14.68;;;10.38;;
35693;SDS011;21812;55.536;37.664;2024-03-23T06:22:40;17.50;;;10.27;;
35693;SDS011;21812;55.536;37.664;2024-03-23T06:25:06;11.55;;;7.95;;
35693;SDS011;21812;55.536;37.664;2024-03-23T06:27:32;16.90;;;10.15;;
35693;SDS011;21812;55.536;37.664;2024-03-23T06:29:59;11.93;;;8.20;;
35693;SDS011;21812;55.536;37.664;2024-03-23T06:32:25;18.33;;;11.38;;
35693;SDS011;21812;55.536;37.664;2024-03-23T06:34:50;16.80;;;10.32;;
35693;SDS011;21812;55.536;37.664;2024-03-23T06:37:16;13.50;;;8.85;;
35693;SDS011;21812;55.536;37.664;2024-03-23T06:39:42;16.02;;;10.23;;
35693;SDS011;21812;55.536;37.664;2024-03-23T06:42:07;14.23;;;10.00;;
35693;SDS011;21812;55.536;37.664;2024-03-23T06:44:33;15.15;;;10.70;;
35693;SDS011;21812;55.536;37.664;2024-03-23T06:46:59;12.77;;;9.18;;
35693;SDS011;21812;55.536;37.664;2024-03-23T06:49:25;14.88;;;9.80;;
35693;SDS011;21812;55.536;37.664;2024-03-23T06:51:51;14.55;;;10.38;;
35693;SDS011;21812;55.536;37.664;2024-03-23T06:54:17;14.05;;;10.32;;
35693;SDS011;21812;55.536;37.664;2024-03-23T06:56:46;14.10;;;9.07;;
35693;SDS011;21812;55.536;37.664;2024-03-23T06:59:12;12.32;;;8.50;;
35693;SDS011;21812;55.536;37.664;2024-03-23T07:01:38;13.80;;;9.20;;
35693;SDS011;21812;55.536;37.664;2024-03-23T07:04:04;14.00;;;8.98;;
35693;SDS011;21812;55.536;37.664;2024-03-23T07:06:30;14.13;;;9.60;;
35693;SDS011;21812;55.536;37.664;2024-03-23T07:08:56;17.38;;;10.57;;
35693;SDS011;21812;55.536;37.664;2024-03-23T07:11:22;21.70;;;9.50;;
35693;SDS011;21812;55.536;37.664;2024-03-23T07:13:52;15.20;;;10.25;;
35693;SDS011;21812;55.536;37.664;2024-03-23T07:16:22;13.93;;;9.18;;
35693;SDS011;21812;55.536;37.664;2024-03-23T07:18:49;18.33;;;10.90;;
35693;SDS011;21812;55.536;37.664;2024-03-23T07:21:15;13.68;;;9.27;;
35693;SDS011;21812;55.536;37.664;2024-03-23T07:23:42;14.32;;;9.55;;
35693;SDS011;21812;55.536;37.664;2024-03-23T07:26:10;13.50;;;9.75;;
35693;SDS011;21812;55.536;37.664;2024-03-23T07:28:36;64.25;;;46.28;;
35693;SDS011;21812;55.536;37.664;2024-03-23T07:31:04;64.40;;;44.88;;
35693;SDS011;21812;55.536;37.664;2024-03-23T07:33:32;22.10;;;13.85;;
35693;SDS011;21812;55.536;37.664;2024-03-23T07:35:59;45.55;;;31.67;;
35693;SDS011;21812;55.536;37.664;2024-03-23T07:38:26;14.85;;;10.88;;
35693;SDS011;21812;55.536;37.664;2024-03-23T07:41:02;15.15;;;10.75;;
35693;SDS011;21812;55.536;37.664;2024-03-23T07:43:34;16.70;;;11.10;;
35693;SDS011;21812;55.536;37.664;2024-03-23T07:46:01;12.25;;;9.18;;
35693;SDS011;21812;55.536;37.664;2024-03-23T07:48:29;12.90;;;9.38;;
35693;SDS011;21812;55.536;37.664;2024-03-23T07:51:17;12.73;;;9.43;;
35693;SDS011;21812;55.536;37.664;2024-03-23T07:53:43;22.80;;;11.80;;
35693;SDS011;21812;55.536;37.664;2024-03-23T07:56:10;13.25;;;9.95;;
35693;SDS011;21812;55.536;37.664;2024-03-23T07:58:36;14.93;;;10.93;;
35693;SDS011;21812;55.536;37.664;2024-03-23T08:01:06;22.63;;;10.63;;
35693;SDS011;21812;55.536;37.664;2024-03-23T08:03:36;19.15;;;10.05;;
35693;SDS011;21812;55.536;37.664;2024-03-23T08:06:07;19.83;;;9.80;;
35693;SDS011;21812;55.536;37.664;2024-03-23T08:08:33;13.90;;;9.77;;
35693;SDS011;21812;55.536;37.664;2024-03-23T08:10:59;19.70;;;9.43;;
35693;SDS011;21812;55.536;37.664;2024-03-23T08:13:26;11.70;;;8.57;;
35693;SDS011;21812;55.536;37.664;2024-03-23T08:15:55;16.98;;;8.77;;
35693;SDS011;21812;55.536;37.664;2024-03-23T08:18:22;12.98;;;9.57;;
35693;SDS011;21812;55.536;37.664;2024-03-23T08:20:54;15.23;;;8.93;;
35693;SDS011;21812;55.536;37.664;2024-03-23T08:23:28;11.75;;;8.85;;
35693;SDS011;21812;55.536;37.664;2024-03-23T08:25:58;11.60;;;7.78;;
35693;SDS011;21812;55.536;37.664;2024-03-23T08:28:27;17.85;;;10.93;;
35693;SDS011;21812;55.536;37.664;2024-03-23T08:30:53;12.32;;;9.00;;
35693;SDS011;21812;55.536;37.664;2024-03-23T08:33:20;12.07;;;9.02;;
35693;SDS011;21812;55.536;37.664;2024-03-23T08:35:55;13.73;;;7.75;;
35693;SDS011;21812;55.536;37.664;2024-03-23T08:38:22;10.30;;;7.10;;
35693;SDS011;21812;55.536;37.664;2024-03-23T08:41:02;11.18;;;8.30;;
35693;SDS011;21812;55.536;37.664;2024-03-23T08:43:29;11.15;;;6.97;;
35693;SDS011;21812;55.536;37.664;2024-03-23T08:46:05;12.38;;;6.95;;
35693;SDS011;21812;55.536;37.664;2024-03-23T08:48:35;9.50;;;7.47;;
35693;SDS011;21812;55.536;37.664;2024-03-23T08:51:06;16.02;;;6.30;;
35693;SDS011;21812;55.536;37.664;2024-03-23T08:53:34;11.70;;;8.63;;
35693;SDS011;21812;55.536;37.664;2024-03-23T08:56:01;8.85;;;6.82;;
35693;SDS011;21812;55.536;37.664;2024-03-23T08:58:28;9.80;;;6.65;;
35693;SDS011;21812;55.536;37.664;2024-03-23T09:00:55;8.98;;;6.78;;
35693;SDS011;21812;55.536;37.664;2024-03-23T09:03:25;13.25;;;8.57;;
35693;SDS011;21812;55.536;37.664;2024-03-23T09:05:51;9.48;;;6.80;;
35693;SDS011;21812;55.536;37.664;2024-03-23T09:08:18;9.55;;;5.90;;
35693;SDS011;21812;55.536;37.664;2024-03-23T09:10:44;8.50;;;6.20;;
35693;SDS011;21812;55.536;37.664;2024-03-23T09:13:11;15.25;;;8.55;;
35693;SDS011;21812;55.536;37.664;2024-03-23T09:15:37;8.30;;;6.00;;
35693;SDS011;21812;55.536;37.664;2024-03-23T09:18:10;16.65;;;11.68;;
35693;SDS011;21812;55.536;37.664;2024-03-23T09:20:36;11.07;;;7.40;;
35693;SDS011;21812;55.536;37.664;2024-03-23T09:23:02;11.38;;;6.57;;
35693;SDS011;21812;55.536;37.664;2024-03-23T09:25:27;10.77;;;6.55;;
35693;SDS011;21812;55.536;37.664;2024-03-23T09:27:53;7.22;;;5.45;;
35693;SDS011;21812;55.536;37.664;2024-03-23T09:30:19;12.32;;;5.70;;
35693;SDS011;21812;55.536;37.664;2024-03-23T09:32:45;9.88;;;6.35;;
35693;SDS011;21812;55.536;37.664;2024-03-23T09:35:11;9.88;;;5.97;;
35693;SDS011;21812;55.536;37.664;2024-03-23T09:37:40;8.38;;;5.93;;
35693;SDS011;21812;55.536;37.664;2024-03-23T09:40:09;8.82;;;6.78;;
35693;SDS011;21812;55.536;37.664;2024-03-23T09:42:37;10.07;;;5.90;;
35693;SDS011;21812;55.536;37.664;2024-03-23T09:45:05;8.18;;;5.95;;
35693;SDS011;21812;55.536;37.664;2024-03-23T09:47:34;7.80;;;5.53;;
35693;SDS011;21812;55.536;37.664;2024-03-23T09:50:00;8.32;;;5.57;;
35693;SDS011;21812;55.536;37.664;2024-03-23T09:52:29;7.90;;;5.07;;
35693;SDS011;21812;55.536;37.664;2024-03-23T09:54:54;5.78;;;5.15;;
35693;SDS011;21812;55.536;37.664;2024-03-23T09:57:20;6.57;;;5.32;;
35693;SDS011;21812;55.536;37.664;2024-03-23T09:59:46;8.05;;;5.88;;
35693;SDS011;21812;55.536;37.664;2024-03-23T10:02:12;8.60;;;6.35;;
35693;SDS011;21812;55.536;37.664;2024-03-23T10:04:42;7.72;;;4.55;;
35693;SDS011;21812;55.536;37.664;2024-03-23T10:07:17;9.60;;;5.38;;
35693;SDS011;21812;55.536;37.664;2024-03-23T10:09:44;7.50;;;4.88;;
35693;SDS011;21812;55.536;37.664;2024-03-23T10:12:16;7.72;;;6.07;;
35693;SDS011;21812;55.536;37.664;2024-03-23T10:14:43;8.48;;;6.10;;
35693;SDS011;21812;55.536;37.664;2024-03-23T10:22:17;8.63;;;6.40;;
35693;SDS011;21812;55.536;37.664;2024-03-23T10:24:47;8.80;;;5.88;;
35693;SDS011;21812;55.536;37.664;2024-03-23T10:27:17;9.00;;;5.40;;
35693;SDS011;21812;55.536;37.664;2024-03-23T10:29:44;8.43;;;5.45;;
35693;SDS011;21812;55.536;37.664;2024-03-23T10:32:11;6.10;;;4.63;;
35693;SDS011;21812;55.536;37.664;2024-03-23T10:34:38;7.28;;;6.07;;
35693;SDS011;21812;55.536;37.664;2024-03-23T10:37:04;8.82;;;7.32;;
35693;SDS011;21812;55.536;37.664;2024-03-23T10:39:38;8.23;;;5.63;;
35693;SDS011;21812;55.536;37.664;2024-03-23T10:42:05;8.00;;;5.70;;
35693;SDS011;21812;55.536;37.664;2024-03-23T10:44:32;7.57;;;6.18;;
35693;SDS011;21812;55.536;37.664;2024-03-23T10:46:58;6.13;;;5.15;;
35693;SDS011;21812;55.536;37.664;2024-03-23T10:49:27;5.22;;;4.15;;
35693;SDS011;21812;55.536;37.664;2024-03-23T10:51:56;8.30;;;6.25;;
35693;SDS011;21812;55.536;37.664;2024-03-23T10:54:24;9.40;;;6.90;;
35693;SDS011;21812;55.536;37.664;2024-03-23T10:59:38;9.70;;;7.25;;
35693;SDS011;21812;55.536;37.664;2024-03-23T11:02:05;13.02;;;8.25;;
35693;SDS011;21812;55.536;37.664;2024-03-23T11:04:34;8.43;;;6.63;;
35693;SDS011;21812;55.536;37.664;2024-03-23T11:09:45;9.55;;;6.93;;
35693;SDS011;21812;55.536;37.664;2024-03-23T11:12:17;9.35;;;6.28;;
35693;SDS011;21812;55.536;37.664;2024-03-23T11:15:01;7.95;;;6.65;;
35693;SDS011;21812;55.536;37.664;2024-03-23T11:17:30;11.65;;;6.97;;
35693;SDS011;21812;55.536;37.664;2024-03-23T11:19:57;10.50;;;7.60;;
35693;SDS011;21812;55.536;37.664;2024-03-23T11:27:43;8.65;;;5.20;;
35693;SDS011;21812;55.536;37.664;2024-03-23T11:30:11;10.55;;;7.18;;
35693;SDS011;21812;55.536;37.664;2024-03-23T11:32:38;8.60;;;6.68;;
35693;SDS011;21812;55.536;37.664;2024-03-23T11:35:04;8.70;;;6.13;;
35693;SDS011;21812;55.536;37.664;2024-03-23T11:37:31;10.38;;;7.63;;
35693;SDS011;21812;55.536;37.664;2024-03-23T11:39:56;7.82;;;4.70;;
35693;SDS011;21812;55.536;37.664;2024-03-23T11:42:22;9.60;;;6.82;;
35693;SDS011;21812;55.536;37.664;2024-03-23T11:44:48;11.93;;;8.13;;
35693;SDS011;21812;55.536;37.664;2024-03-23T11:47:13;11.32;;;7.80;;
35693;SDS011;21812;55.536;37.664;2024-03-23T11:49:39;11.38;;;8.45;;
35693;SDS011;21812;55.536;37.664;2024-03-23T11:52:07;11.45;;;8.23;;
35693;SDS011;21812;55.536;37.664;2024-03-23T11:54:33;13.35;;;9.35;;
35693;SDS011;21812;55.536;37.664;2024-03-23T11:57:00;9.70;;;6.32;;
35693;SDS011;21812;55.536;37.664;2024-03-23T11:59:38;14.35;;;9.25;;
35693;SDS011;21812;55.536;37.664;2024-03-23T12:02:12;8.77;;;6.53;;
35693;SDS011;21812;55.536;37.664;2024-03-23T12:04:41;12.30;;;6.88;;
35693;SDS011;21812;55.536;37.664;2024-03-23T12:07:11;11.30;;;8.40;;
35693;SDS011;21812;55.536;37.664;2024-03-23T12:10:02;11.85;;;8.15;;
35693;SDS011;21812;55.536;37.664;2024-03-23T12:12:30;11.15;;;8.35;;
35693;SDS011;21812;55.536;37.664;2024-03-23T12:15:05;10.82;;;7.85;;
35693;SDS011;21812;55.536;37.664;2024-03-23T12:17:33;17.38;;;10.98;;
35693;SDS011;21812;55.536;37.664;2024-03-23T12:20:03;13.30;;;9.77;;
35693;SDS011;21812;55.536;37.664;2024-03-23T12:22:31;8.25;;;6.10;;
35693;SDS011;21812;55.536;37.664;2024-03-23T12:24:56;12.93;;;8.30;;
35693;SDS011;21812;55.536;37.664;2024-03-23T12:27:22;15.82;;;9.15;;
35693;SDS011;21812;55.536;37.664;2024-03-23T12:29:48;15.75;;;11.27;;
35693;SDS011;21812;55.536;37.664;2024-03-23T12:32:14;14.98;;;9.27;;
35693;SDS011;21812;55.536;37.664;2024-03-23T12:34:40;16.63;;;9.80;;
35693;SDS011;21812;55.536;37.664;2024-03-23T12:37:06;12.40;;;9.40;;
35693;SDS011;21812;55.536;37.664;2024-03-23T12:39:32;11.60;;;8.27;;
35693;SDS011;21812;55.536;37.664;2024-03-23T12:42:00;17.15;;;9.93;;
35693;SDS011;21812;55.536;37.664;2024-03-23T12:44:28;11.48;;;8.63;;
35693;SDS011;21812;55.536;37.664;2024-03-23T12:46:54;15.48;;;10.98;;
35693;SDS011;21812;55.536;37.664;2024-03-23T12:49:19;13.68;;;8.68;;
35693;SDS011;21812;55.536;37.664;2024-03-23T12:51:48;13.23;;;9.93;;
35693;SDS011;21812;55.536;37.664;2024-03-23T12:54:19;13.93;;;9.60;;
35693;SDS011;21812;55.536;37.664;2024-03-23T12:56:45;10.10;;;7.70;;
35693;SDS011;21812;55.536;37.664;2024-03-23T12:59:11;11.00;;;7.80;;
35693;SDS011;21812;55.536;37.664;2024-03-23T13:01:38;13.88;;;9.48;;
35693;SDS011;21812;55.536;37.664;2024-03-23T13:04:04;13.45;;;9.20;;
35693;SDS011;21812;55.536;37.664;2024-03-23T13:06:30;13.85;;;9.23;;
35693;SDS011;21812;55.536;37.664;2024-03-23T13:09:02;13.70;;;10.18;;
35693;SDS011;21812;55.536;37.664;2024-03-23T13:11:29;13.27;;;9.18;;
35693;SDS011;21812;55.536;37.664;2024-03-23T13:13:55;11.27;;;7.50;;
35693;SDS011;21812;55.536;37.664;2024-03-23T13:16:21;11.35;;;8.40;;
35693;SDS011;21812;55.536;37.664;2024-03-23T13:18:47;13.68;;;9.77;;
35693;SDS011;21812;55.536;37.664;2024-03-23T13:21:13;12.95;;;7.85;;
35693;SDS011;21812;55.536;37.664;2024-03-23T13:23:39;10.50;;;6.85;;
35693;SDS011;21812;55.536;37.664;2024-03-23T13:26:07;13.50;;;9.70;;
35693;SDS011;21812;55.536;37.664;2024-03-23T13:28:33;16.05;;;9.73;;
35693;SDS011;21812;55.536;37.664;2024-03-23T13:31:01;13.10;;;9.52;;
35693;SDS011;21812;55.536;37.664;2024-03-23T13:33:30;9.30;;;6.88;;
35693;SDS011;21812;55.536;37.664;2024-03-23T13:35:58;10.77;;;8.00;;
35693;SDS011;21812;55.536;37.664;2024-03-23T13:38:24;12.52;;;8.93;;
35693;SDS011;21812;55.536;37.664;2024-03-23T13:43:19;12.52;;;8.95;;
35693;SDS011;21812;55.536;37.664;2024-03-23T13:45:46;12.98;;;8.35;;
35693;SDS011;21812;55.536;37.664;2024-03-23T13:48:22;11.88;;;8.02;;
35693;SDS011;21812;55.536;37.664;2024-03-23T13:51:02;10.18;;;6.88;;
35693;SDS011;21812;55.536;37.664;2024-03-23T13:53:29;12.52;;;8.55;;
35693;SDS011;21812;55.536;37.664;2024-03-23T13:55:56;10.93;;;8.05;;
35693;SDS011;21812;55.536;37.664;2024-03-23T13:58:21;12.63;;;8.35;;
35693;SDS011;21812;55.536;37.664;2024-03-23T14:00:51;6.30;;;4.47;;
35693;SDS011;21812;55.536;37.664;2024-03-23T14:03:17;8.98;;;6.55;;
35693;SDS011;21812;55.536;37.664;2024-03-23T14:05:46;11.10;;;7.15;;
35693;SDS011;21812;55.536;37.664;2024-03-23T14:08:14;10.30;;;7.32;;
35693;SDS011;21812;55.536;37.664;2024-03-23T14:10:40;13.05;;;8.40;;
35693;SDS011;21812;55.536;37.664;2024-03-23T14:13:07;10.70;;;7.25;;
35693;SDS011;21812;55.536;37.664;2024-03-23T14:15:33;5.13;;;4.15;;
35693;SDS011;21812;55.536;37.664;2024-03-23T14:17:59;6.32;;;4.50;;
35693;SDS011;21812;55.536;37.664;2024-03-23T14:20:25;9.13;;;7.47;;
35693;SDS011;21812;55.536;37.664;2024-03-23T14:22:52;11.00;;;8.50;;
35693;SDS011;21812;55.536;37.664;2024-03-23T14:25:18;10.63;;;7.07;;
35693;SDS011;21812;55.536;37.664;2024-03-23T14:27:44;10.95;;;7.97;;
35693;SDS011;21812;55.536;37.664;2024-03-23T14:30:11;11.48;;;7.60;;
35693;SDS011;21812;55.536;37.664;2024-03-23T14:32:40;8.80;;;6.55;;
35693;SDS011;21812;55.536;37.664;2024-03-23T14:35:06;14.10;;;7.55;;
35693;SDS011;21812;55.536;37.664;2024-03-23T14:37:36;10.70;;;8.15;;
35693;SDS011;21812;55.536;37.664;2024-03-23T14:40:03;9.73;;;7.25;;
35693;SDS011;21812;55.536;37.664;2024-03-23T14:42:29;9.73;;;7.65;;
35693;SDS011;21812;55.536;37.664;2024-03-23T14:44:56;11.02;;;7.60;;
35693;SDS011;21812;55.536;37.664;2024-03-23T14:47:22;11.13;;;8.45;;
35693;SDS011;21812;55.536;37.664;2024-03-23T14:49:47;8.38;;;6.45;;
35693;SDS011;21812;55.536;37.664;2024-03-23T14:52:16;9.45;;;7.07;;
35693;SDS011;21812;55.536;37.664;2024-03-23T14:54:42;10.75;;;7.47;;
35693;SDS011;21812;55.536;37.664;2024-03-23T14:57:08;8.77;;;6.40;;
35693;SDS011;21812;55.536;37.664;2024-03-23T14:59:37;10.43;;;5.95;;
35693;SDS011;21812;55.536;37.664;2024-03-23T15:02:04;11.68;;;6.85;;
35693;SDS011;21812;55.536;37.664;2024-03-23T15:04:30;10.07;;;7.72;;
35693;SDS011;21812;55.536;37.664;2024-03-23T15:06:56;11.07;;;6.85;;
35693;SDS011;21812;55.536;37.664;2024-03-23T15:09:22;11.40;;;8.80;;
35693;SDS011;21812;55.536;37.664;2024-03-23T15:11:47;12.00;;;8.27;;
35693;SDS011;21812;55.536;37.664;2024-03-23T15:14:13;11.30;;;7.53;;
35693;SDS011;21812;55.536;37.664;2024-03-23T15:16:39;11.10;;;7.40;;
35693;SDS011;21812;55.536;37.664;2024-03-23T15:19:04;11.27;;;7.80;;
35693;SDS011;21812;55.536;37.664;2024-03-23T15:21:31;10.60;;;7.95;;
35693;SDS011;21812;55.536;37.664;2024-03-23T15:23:57;12.25;;;8.82;;
35693;SDS011;21812;55.536;37.664;2024-03-23T15:26:23;11.95;;;7.40;;
35693;SDS011;21812;55.536;37.664;2024-03-23T15:28:49;7.18;;;5.78;;
35693;SDS011;21812;55.536;37.664;2024-03-23T15:31:24;11.55;;;8.30;;